Time;durP1;ratioP1;P1;durP2;ratioP2;P2;SDS_P1;SDS_P2;PMS_P1;PMS_P2;Temp;Humidity;BMP_temperature;BMP_pressure;BME280_temperature;BME280_humidity;BME280_pressure;Samples;Min_cycle;Max_cycle;Signal;HPM_P1;HPM_P2
2023/05/13 00:00:39;;;;;;;8.40;7.60;;;15.80;99.90;;;;;;5044067;28;20208;-30
2023/05/13 00:03:09;;;;;;;9.35;7.15;;;15.80;99.90;;;;;;5027800;28;20624;-30
2023/05/13 00:05:36;;;;;;;7.60;6.80;;;15.80;99.90;;;;;;5045933;28;20632;-30
2023/05/13 00:08:06;;;;;;;8.25;7.15;;;15.70;99.90;;;;;;5045322;28;20224;-30
2023/05/13 00:10:34;;;;;;;8.13;7.13;;;15.70;99.90;;;;;;5046067;28;20192;-29
2023/05/13 00:13:07;;;;;;;8.07;7.33;;;15.60;99.90;;;;;;5045526;28;20576;-30
2023/05/13 00:15:34;;;;;;;8.97;7.40;;;15.60;99.90;;;;;;5043935;28;20208;-29
2023/05/13 00:18:01;;;;;;;8.87;7.80;;;15.50;99.90;;;;;;5044196;28;20311;-30
2023/05/13 00:20:31;;;;;;;8.63;7.83;;;15.50;99.90;;;;;;5027814;28;20196;-30
2023/05/13 00:23:02;;;;;;;8.93;7.93;;;15.40;99.90;;;;;;5044483;28;20584;-30
2023/05/13 00:25:31;;;;;;;9.67;8.23;;;15.40;99.90;;;;;;5042667;28;20231;-30
2023/05/13 00:28:01;;;;;;;9.43;8.07;;;15.30;99.90;;;;;;5024203;28;20781;-29
2023/05/13 00:30:30;;;;;;;9.10;8.20;;;15.30;99.90;;;;;;5024976;28;20217;-30
2023/05/13 00:33:02;;;;;;;9.03;8.10;;;15.30;99.90;;;;;;5024768;28;20692;-30
2023/05/13 00:35:36;;;;;;;9.33;8.43;;;15.20;99.90;;;;;;5023966;28;20294;-30
2023/05/13 00:38:06;;;;;;;9.00;8.10;;;15.20;99.90;;;;;;5023568;28;20630;-30
2023/05/13 00:40:41;;;;;;;9.43;8.40;;;15.10;99.90;;;;;;5026059;28;20213;-30
2023/05/13 00:43:08;;;;;;;8.77;7.97;;;15.10;99.90;;;;;;5025099;28;20204;-29
2023/05/13 00:45:38;;;;;;;9.20;8.33;;;15.10;99.90;;;;;;5025127;28;20300;-29
2023/05/13 00:48:08;;;;;;;9.70;8.13;;;15.00;99.90;;;;;;5025145;28;20722;-30
2023/05/13 00:50:41;;;;;;;10.27;9.27;;;15.00;99.90;;;;;;5033523;28;20204;-30
2023/05/13 00:53:16;;;;;;;9.10;8.30;;;15.00;99.90;;;;;;5045323;28;20596;-30
2023/05/13 00:55:47;;;;;;;9.33;8.47;;;15.00;99.90;;;;;;5043771;28;20597;-30
2023/05/13 00:58:16;;;;;;;9.03;8.13;;;15.00;99.90;;;;;;5031469;28;20260;-30
2023/05/13 01:01:18;;;;;;;8.33;7.63;;;15.00;99.90;;;;;;5023764;28;20600;-29
2023/05/13 01:03:57;;;;;;;9.10;8.30;;;15.10;99.90;;;;;;5027166;28;20335;-29
2023/05/13 01:06:50;;;;;;;9.90;8.97;;;15.00;99.90;;;;;;5039858;28;20215;-30
2023/05/13 01:09:32;;;;;;;8.87;8.07;;;15.00;99.90;;;;;;5037435;28;20224;-30
2023/05/13 01:12:08;;;;;;;10.33;8.53;;;15.00;99.90;;;;;;5044436;28;20257;-30
2023/05/13 01:14:46;;;;;;;9.90;8.90;;;15.00;99.90;;;;;;5038909;28;20220;-30
2023/05/13 01:17:18;;;;;;;11.37;8.37;;;14.90;99.90;;;;;;5036501;28;20207;-30
2023/05/13 01:19:57;;;;;;;9.83;8.80;;;14.90;99.90;;;;;;5046452;28;21075;-30
2023/05/13 01:22:24;;;;;;;9.13;8.27;;;14.90;99.90;;;;;;5046904;28;20233;-30
2023/05/13 01:24:51;;;;;;;9.73;8.90;;;14.90;99.90;;;;;;5048220;28;20686;-29
2023/05/13 01:27:21;;;;;;;10.00;8.70;;;14.90;99.90;;;;;;5046758;28;20207;-30
2023/05/13 01:29:49;;;;;;;9.60;8.77;;;14.80;99.90;;;;;;5047150;28;20223;-30
2023/05/13 01:32:17;;;;;;;9.80;8.80;;;14.80;99.90;;;;;;5034261;28;20270;-30
2023/05/13 01:34:46;;;;;;;9.43;8.53;;;14.80;99.90;;;;;;5026309;28;20197;-30
2023/05/13 01:37:21;;;;;;;9.60;8.80;;;14.70;99.90;;;;;;5028171;28;20995;-30
2023/05/13 01:39:49;;;;;;;10.77;9.67;;;14.70;99.90;;;;;;5028053;28;20255;-30
2023/05/13 01:42:25;;;;;;;10.33;8.90;;;14.70;99.90;;;;;;5026569;28;20232;-30
2023/05/13 01:44:58;;;;;;;10.17;9.23;;;14.70;99.90;;;;;;5026636;28;20207;-30
2023/05/13 01:47:30;;;;;;;9.37;8.47;;;14.70;99.90;;;;;;5028097;28;20245;-30
2023/05/13 01:49:59;;;;;;;10.30;9.20;;;14.70;99.90;;;;;;5024453;28;20216;-30
2023/05/13 01:52:29;;;;;;;10.13;9.20;;;14.60;99.90;;;;;;5035372;28;20302;-30
2023/05/13 01:54:58;;;;;;;10.90;9.90;;;14.60;99.90;;;;;;5047001;28;20307;-30
2023/05/13 01:57:28;;;;;;;11.30;10.20;;;14.60;99.90;;;;;;5042797;28;20229;-30
2023/05/13 01:59:55;;;;;;;10.67;9.70;;;14.50;99.90;;;;;;5027803;28;20635;-30
2023/05/13 02:02:30;;;;;;;11.03;10.00;;;14.50;99.90;;;;;;5042889;28;20243;-30
2023/05/13 02:05:00;;;;;;;11.30;10.20;;;14.50;99.90;;;;;;5028522;28;20208;-30
2023/05/13 02:07:30;;;;;;;11.33;10.17;;;14.40;99.90;;;;;;5026134;28;20220;-30
2023/05/13 02:09:58;;;;;;;12.03;10.83;;;14.40;99.90;;;;;;5042964;28;20620;-30
2023/05/13 02:12:30;;;;;;;12.50;11.20;;;14.40;99.90;;;;;;5027864;28;20211;-30
2023/05/13 02:14:57;;;;;;;11.93;10.83;;;14.40;99.90;;;;;;5042630;28;20338;-30
2023/05/13 02:17:27;;;;;;;12.13;10.93;;;14.30;99.90;;;;;;5042607;28;20287;-30
2023/05/13 02:19:56;;;;;;;12.10;10.93;;;14.30;99.90;;;;;;5042761;28;20243;-30
2023/05/13 02:22:30;;;;;;;12.10;10.90;;;14.30;99.90;;;;;;5027955;28;20520;-30
2023/05/13 02:24:59;;;;;;;13.40;12.00;;;14.30;99.90;;;;;;5027076;28;20282;-30
2023/05/13 02:27:27;;;;;;;12.47;11.17;;;14.30;99.90;;;;;;5026836;28;20259;-30
2023/05/13 02:29:56;;;;;;;12.70;11.40;;;14.30;99.90;;;;;;5044534;28;20323;-30
2023/05/13 02:32:26;;;;;;;12.47;11.27;;;14.30;99.90;;;;;;5045678;28;20761;-30
2023/05/13 02:34:53;;;;;;;13.07;11.77;;;14.30;99.90;;;;;;5047179;28;20211;-30
2023/05/13 02:37:23;;;;;;;12.03;10.93;;;14.30;99.90;;;;;;5047402;28;20212;-30
2023/05/13 02:39:52;;;;;;;12.40;11.20;;;14.40;99.90;;;;;;5037961;28;20229;-30
2023/05/13 02:42:22;;;;;;;14.10;11.73;;;14.30;99.90;;;;;;5026849;28;20299;-30
2023/05/13 02:44:52;;;;;;;12.77;11.57;;;14.30;99.90;;;;;;5027164;28;20628;-30
2023/05/13 02:47:19;;;;;;;12.33;11.23;;;14.30;99.90;;;;;;5042346;28;20612;-30
2023/05/13 02:49:48;;;;;;;13.07;11.77;;;14.30;99.90;;;;;;5026949;28;20228;-30
2023/05/13 02:52:18;;;;;;;13.00;11.80;;;14.30;99.90;;;;;;5034219;28;20240;-30
2023/05/13 02:54:47;;;;;;;15.10;12.97;;;14.30;99.90;;;;;;5046708;28;20208;-30
2023/05/13 02:57:19;;;;;;;14.00;12.60;;;14.30;99.90;;;;;;5033491;28;20247;-30
2023/05/13 02:59:49;;;;;;;13.87;12.53;;;14.30;99.90;;;;;;5026720;28;20235;-30
2023/05/13 03:02:18;;;;;;;13.63;12.33;;;14.30;99.90;;;;;;5041918;28;20240;-30
2023/05/13 03:04:46;;;;;;;14.20;12.80;;;14.30;99.90;;;;;;5041595;28;20274;-30
2023/05/13 03:07:13;;;;;;;14.30;12.87;;;14.30;99.90;;;;;;5041468;28;20243;-30
2023/05/13 03:09:45;;;;;;;13.17;11.77;;;14.30;99.90;;;;;;5026350;28;20241;-30
2023/05/13 03:12:14;;;;;;;13.07;11.77;;;14.30;99.90;;;;;;5026123;28;20216;-30
2023/05/13 03:14:44;;;;;;;13.63;12.37;;;14.30;99.90;;;;;;5041796;28;20212;-30
2023/05/13 03:17:11;;;;;;;13.70;12.40;;;14.20;99.90;;;;;;5041414;28;20197;-30
2023/05/13 03:19:41;;;;;;;14.80;13.30;;;14.20;99.90;;;;;;5026347;28;20955;-30
2023/05/13 03:22:08;;;;;;;13.67;12.37;;;14.20;99.90;;;;;;5024717;28;20209;-30
2023/05/13 03:24:35;;;;;;;14.60;13.23;;;14.20;99.90;;;;;;5025129;28;20267;-30
2023/05/13 03:27:03;;;;;;;14.30;12.77;;;14.20;99.90;;;;;;5025730;28;20208;-30
2023/05/13 03:29:32;;;;;;;14.33;12.93;;;14.10;99.90;;;;;;5025486;28;20788;-30
2023/05/13 03:31:59;;;;;;;13.60;12.30;;;14.10;99.90;;;;;;5043085;28;20215;-30
2023/05/13 03:34:27;;;;;;;15.70;14.20;;;14.10;99.90;;;;;;5044433;28;20250;-30
2023/05/13 03:36:56;;;;;;;17.10;13.87;;;14.00;99.90;;;;;;5045317;28;20231;-30
2023/05/13 03:39:25;;;;;;;14.53;13.03;;;14.00;99.90;;;;;;5045820;28;20731;-30
2023/05/13 03:41:55;;;;;;;14.30;12.90;;;14.00;99.90;;;;;;5046103;28;20228;-30
2023/05/13 03:44:22;;;;;;;14.57;13.07;;;14.00;99.90;;;;;;5044726;28;20299;-30
2023/05/13 03:46:49;;;;;;;14.07;12.73;;;13.90;99.90;;;;;;5044226;28;20305;-30
2023/05/13 03:49:21;;;;;;;14.63;13.13;;;13.90;99.90;;;;;;5043966;28;20228;-30
2023/05/13 03:51:48;;;;;;;15.17;13.60;;;13.90;99.90;;;;;;5044452;28;20207;-30
2023/05/13 03:54:18;;;;;;;15.10;13.70;;;13.90;99.90;;;;;;5045329;28;20224;-30
2023/05/13 03:56:47;;;;;;;14.90;13.33;;;13.80;99.90;;;;;;5044161;28;20301;-30
2023/05/13 03:59:15;;;;;;;15.43;13.93;;;13.80;99.90;;;;;;5045358;28;20196;-30
2023/05/13 04:01:42;;;;;;;17.17;14.13;;;13.80;99.90;;;;;;5043765;28;20204;-30
2023/05/13 04:04:11;;;;;;;15.20;13.73;;;13.80;99.90;;;;;;5044807;28;20220;-30
2023/05/13 04:06:44;;;;;;;16.30;14.60;;;13.80;99.90;;;;;;5044804;28;20212;-30
2023/05/13 04:09:14;;;;;;;16.20;14.23;;;13.70;99.90;;;;;;5044148;28;20251;-30
2023/05/13 04:11:43;;;;;;;16.13;14.40;;;13.70;99.90;;;;;;5045566;28;20745;-30
2023/05/13 04:14:13;;;;;;;16.80;13.93;;;13.70;99.90;;;;;;5044158;28;20232;-30
2023/05/13 04:16:42;;;;;;;15.30;13.73;;;13.70;99.90;;;;;;5045741;28;20298;-30
2023/05/13 04:19:10;;;;;;;15.73;14.10;;;13.80;99.90;;;;;;5044589;28;20207;-30
2023/05/13 04:21:42;;;;;;;15.90;14.20;;;13.70;99.90;;;;;;5044410;28;20224;-30
2023/05/13 04:24:14;;;;;;;15.70;14.20;;;13.70;99.90;;;;;;5027944;28;20226;-30
2023/05/13 04:26:41;;;;;;;16.07;14.47;;;13.70;99.90;;;;;;5045456;28;20208;-30
2023/05/13 04:29:13;;;;;;;15.73;14.07;;;13.70;99.90;;;;;;5032633;28;20319;-30
2023/05/13 04:31:45;;;;;;;15.70;14.17;;;13.70;99.90;;;;;;5025142;28;20640;-30
2023/05/13 04:34:15;;;;;;;15.60;14.00;;;13.70;99.90;;;;;;5025613;28;20219;-30
2023/05/13 04:36:45;;;;;;;15.80;14.20;;;13.70;99.90;;;;;;5024196;28;20212;-30
2023/05/13 04:39:12;;;;;;;15.30;13.50;;;13.70;99.90;;;;;;5024664;28;20221;-30
2023/05/13 04:41:44;;;;;;;14.80;13.10;;;13.70;99.90;;;;;;5025625;28;20557;-30
2023/05/13 04:44:16;;;;;;;14.63;13.10;;;13.70;99.90;;;;;;5040349;28;20304;-30
2023/05/13 04:46:46;;;;;;;16.10;14.50;;;13.70;99.90;;;;;;5025716;28;20207;-30
2023/05/13 04:49:15;;;;;;;14.90;13.50;;;13.70;99.90;;;;;;5026086;28;20224;-30
2023/05/13 04:51:45;;;;;;;15.30;13.67;;;13.70;99.90;;;;;;5028338;28;20193;-30
2023/05/13 04:54:12;;;;;;;15.23;13.60;;;13.70;99.90;;;;;;5044639;28;20682;-30
2023/05/13 04:56:40;;;;;;;15.63;14.13;;;13.70;99.90;;;;;;5044608;28;20544;-30
2023/05/13 04:59:14;;;;;;;15.00;13.57;;;13.70;99.90;;;;;;5047834;28;20294;-30
2023/05/13 05:01:41;;;;;;;14.93;13.33;;;13.70;99.90;;;;;;5048170;28;20224;-30
2023/05/13 05:04:16;;;;;;;14.73;13.30;;;13.70;99.90;;;;;;5049605;28;20222;-30
2023/05/13 05:06:43;;;;;;;15.27;13.77;;;13.70;99.90;;;;;;5048178;28;20694;-30
2023/05/13 05:09:16;;;;;;;14.83;13.33;;;13.80;99.90;;;;;;5047558;28;20625;-30
2023/05/13 05:11:43;;;;;;;14.03;12.73;;;13.80;99.90;;;;;;5049521;28;20200;-30
2023/05/13 05:14:11;;;;;;;14.17;12.60;;;13.90;99.90;;;;;;5048496;28;20240;-30
2023/05/13 05:16:38;;;;;;;15.17;13.67;;;13.90;99.90;;;;;;5049335;28;20523;-30
2023/05/13 05:19:07;;;;;;;14.77;13.37;;;14.00;99.90;;;;;;5049687;28;20200;-30
2023/05/13 05:21:35;;;;;;;14.97;13.47;;;14.00;99.90;;;;;;5049003;28;20307;-30
2023/05/13 05:24:02;;;;;;;14.17;12.77;;;14.10;99.90;;;;;;5047722;28;20298;-30
2023/05/13 05:26:29;;;;;;;13.93;12.57;;;14.20;99.90;;;;;;5047564;28;20639;-30
2023/05/13 05:28:56;;;;;;;14.27;12.87;;;14.20;99.90;;;;;;5040245;28;20283;-30
2023/05/13 05:31:26;;;;;;;13.73;12.43;;;14.30;99.90;;;;;;5029176;28;20632;-30
2023/05/13 05:33:59;;;;;;;13.43;12.03;;;14.40;99.90;;;;;;5027537;28;20208;-30
2023/05/13 05:36:28;;;;;;;15.17;13.57;;;14.40;99.90;;;;;;5029098;28;20201;-30
2023/05/13 05:38:58;;;;;;;13.43;12.20;;;14.40;99.90;;;;;;5028623;28;20322;-30
2023/05/13 05:41:27;;;;;;;14.63;13.13;;;14.50;99.90;;;;;;5028805;28;20201;-30
2023/05/13 05:43:57;;;;;;;14.87;13.17;;;14.50;99.90;;;;;;5029045;28;20205;-30
2023/05/13 05:46:26;;;;;;;15.30;13.10;;;14.60;99.90;;;;;;5027974;28;20223;-31
2023/05/13 05:48:54;;;;;;;13.37;11.63;;;14.60;99.90;;;;;;5028124;28;20672;-30
2023/05/13 05:51:23;;;;;;;13.37;11.80;;;14.60;99.90;;;;;;5028529;28;20267;-31
2023/05/13 05:53:51;;;;;;;13.87;12.57;;;14.70;99.90;;;;;;5028048;28;20239;-30
2023/05/13 05:56:18;;;;;;;13.50;12.20;;;14.70;99.90;;;;;;5027988;28;20676;-31
2023/05/13 05:58:50;;;;;;;12.65;11.50;;;14.70;99.90;;;;;;5045765;28;20219;-31
2023/05/13 06:01:20;;;;;;;13.50;12.10;;;14.70;99.90;;;;;;5046325;28;20200;-30
2023/05/13 06:03:47;;;;;;;12.90;11.70;;;14.80;99.90;;;;;;5039349;28;20323;-30
2023/05/13 06:06:18;;;;;;;15.27;12.40;;;14.80;99.90;;;;;;5028095;28;20220;-30
2023/05/13 06:08:50;;;;;;;12.97;11.67;;;14.80;99.90;;;;;;5026762;28;20212;-30
2023/05/13 06:11:17;;;;;;;12.37;11.17;;;14.80;99.90;;;;;;5028370;28;20308;-30
2023/05/13 06:13:48;;;;;;;14.13;11.80;;;14.80;99.90;;;;;;5028155;28;20247;-30
2023/05/13 06:16:20;;;;;;;12.43;11.33;;;14.80;99.90;;;;;;5028050;28;20209;-30
2023/05/13 06:18:47;;;;;;;12.93;11.73;;;14.90;99.90;;;;;;5028145;28;20205;-31
2023/05/13 06:21:17;;;;;;;12.70;11.40;;;14.90;99.90;;;;;;5028348;28;20205;-30
2023/05/13 06:23:44;;;;;;;13.43;12.13;;;14.90;99.90;;;;;;5026301;28;20207;-30
2023/05/13 06:26:14;;;;;;;12.33;11.23;;;14.90;99.90;;;;;;5027789;28;20773;-30
2023/05/13 06:28:43;;;;;;;12.80;11.60;;;14.90;99.90;;;;;;5026200;28;20193;-30
2023/05/13 06:31:10;;;;;;;12.93;11.63;;;15.00;99.90;;;;;;5027456;28;20228;-30
2023/05/13 06:33:40;;;;;;;12.73;11.43;;;15.00;99.90;;;;;;5009733;28;20201;-30
2023/05/13 06:36:13;;;;;;;12.20;11.00;;;15.00;99.90;;;;;;5026447;28;20212;-30
2023/05/13 06:38:42;;;;;;;13.83;11.83;;;15.00;99.90;;;;;;5041324;28;20681;-30
2023/05/13 06:41:12;;;;;;;12.00;10.80;;;15.10;99.90;;;;;;5047211;28;20250;-30
2023/05/13 06:43:45;;;;;;;13.53;12.10;;;15.10;99.90;;;;;;5047354;28;20732;-30
2023/05/13 06:46:12;;;;;;;11.90;10.70;;;15.10;99.90;;;;;;5047073;28;20208;-30
2023/05/13 06:48:44;;;;;;;10.97;9.87;;;15.10;99.90;;;;;;5045811;28;20693;-30
2023/05/13 06:51:11;;;;;;;12.20;10.90;;;15.20;99.90;;;;;;5046826;28;20208;-30
2023/05/13 06:53:38;;;;;;;15.67;11.77;;;15.20;99.90;;;;;;5045417;28;20216;-30
2023/05/13 06:56:07;;;;;;;13.30;11.10;;;15.20;99.90;;;;;;5029025;28;20523;-30
2023/05/13 06:58:37;;;;;;;11.10;10.03;;;15.30;99.90;;;;;;5045654;28;20682;-30
2023/05/13 07:01:04;;;;;;;13.27;11.97;;;15.30;99.90;;;;;;5045455;28;20316;-30
2023/05/13 07:03:34;;;;;;;12.47;11.17;;;15.30;99.90;;;;;;5046235;28;20725;-30
2023/05/13 07:06:03;;;;;;;12.73;11.50;;;15.40;99.90;;;;;;5045515;28;20659;-30
2023/05/13 07:08:39;;;;;;;13.87;10.67;;;15.40;99.90;;;;;;5045346;28;20204;-30
2023/05/13 07:11:10;;;;;;;12.70;11.17;;;15.50;99.90;;;;;;5045482;28;20289;-30
2023/05/13 07:13:43;;;;;;;11.55;10.45;;;15.50;99.90;;;;;;5044523;28;20748;-30
2023/05/13 07:16:12;;;;;;;14.30;11.40;;;15.50;99.90;;;;;;5045207;28;20287;-30
2023/05/13 07:18:41;;;;;;;12.40;10.30;;;15.50;99.90;;;;;;5045054;28;20236;-30
2023/05/13 07:21:09;;;;;;;14.80;11.27;;;15.60;99.90;;;;;;5045023;28;20242;-30
2023/05/13 07:23:38;;;;;;;13.07;10.57;;;15.60;99.90;;;;;;5028697;28;20665;-30
2023/05/13 07:26:08;;;;;;;12.68;10.80;;;15.60;99.90;;;;;;5046329;28;20722;-30
2023/05/13 07:28:40;;;;;;;12.83;10.13;;;15.70;99.90;;;;;;5043690;28;20581;-30
2023/05/13 07:31:09;;;;;;;14.17;10.87;;;15.70;99.90;;;;;;5044802;28;20259;-30
2023/05/13 07:33:36;;;;;;;13.23;11.23;;;15.70;99.90;;;;;;5028369;28;20200;-30
2023/05/13 07:36:05;;;;;;;11.93;10.77;;;15.80;99.90;;;;;;5044376;28;20208;-30
2023/05/13 07:38:32;;;;;;;12.57;10.60;;;15.80;99.90;;;;;;5044540;28;20209;-30
2023/05/13 07:41:00;;;;;;;13.10;11.27;;;15.80;99.90;;;;;;5044541;28;20308;-30
2023/05/13 07:43:27;;;;;;;10.87;9.77;;;15.90;99.90;;;;;;5045663;28;20219;-30
2023/05/13 07:45:54;;;;;;;10.20;9.17;;;15.90;99.90;;;;;;5044583;28;20218;-30
2023/05/13 07:48:24;;;;;;;10.07;9.10;;;16.00;99.90;;;;;;5044115;28;20239;-30
2023/05/13 07:50:53;;;;;;;12.87;9.67;;;16.00;99.90;;;;;;5044043;28;20327;-30
2023/05/13 07:53:23;;;;;;;12.30;11.00;;;16.10;99.90;;;;;;5045661;28;20189;-30
2023/05/13 07:55:54;;;;;;;11.37;10.27;;;16.10;99.90;;;;;;5046056;28;20559;-30
2023/05/13 07:58:24;;;;;;;12.10;10.27;;;16.10;99.90;;;;;;5028257;28;20236;-30
2023/05/13 08:00:54;;;;;;;15.83;10.00;;;16.20;99.90;;;;;;5024924;28;20959;-30
2023/05/13 08:03:23;;;;;;;10.17;9.23;;;16.20;99.90;;;;;;5024260;28;20223;-30
2023/05/13 08:05:55;;;;;;;11.63;10.53;;;16.30;99.90;;;;;;5026175;28;20213;-30
2023/05/13 08:08:25;;;;;;;12.00;10.63;;;16.30;99.90;;;;;;5040111;28;20244;-30
2023/05/13 08:10:55;;;;;;;10.40;9.17;;;16.40;99.90;;;;;;5023607;28;20250;-30
2023/05/13 08:13:25;;;;;;;9.03;8.23;;;16.40;99.90;;;;;;5026102;28;20286;-30
2023/05/13 08:15:54;;;;;;;10.43;9.53;;;16.50;99.90;;;;;;5025238;28;20296;-30
2023/05/13 08:18:28;;;;;;;14.00;11.40;;;16.50;99.90;;;;;;5025260;28;20212;-30
2023/05/13 08:20:58;;;;;;;12.93;9.80;;;16.70;99.90;;;;;;5025810;28;20558;-30
2023/05/13 08:23:25;;;;;;;10.50;9.40;;;16.70;99.90;;;;;;5007776;28;20219;-30
2023/05/13 08:26:12;;;;;;;10.93;9.63;;;16.70;99.90;;;;;;5025082;28;20687;-30
2023/05/13 08:28:39;;;;;;;10.50;9.60;;;16.80;99.90;;;;;;5023441;28;20732;-30
2023/05/13 08:31:11;;;;;;;15.55;10.93;;;16.80;99.90;;;;;;5035941;28;20243;-30
2023/05/13 08:33:41;;;;;;;11.45;9.68;;;16.90;99.90;;;;;;5045605;28;20194;-30
2023/05/13 08:36:13;;;;;;;12.00;9.60;;;16.90;99.90;;;;;;5042304;28;20213;-30
2023/05/13 08:38:42;;;;;;;9.82;8.93;;;17.00;99.90;;;;;;5023141;28;20627;-30
2023/05/13 08:41:12;;;;;;;11.30;10.20;;;17.00;99.90;;;;;;5024524;28;20232;-30
2023/05/13 08:43:42;;;;;;;12.07;10.07;;;17.10;99.90;;;;;;5024848;28;20272;-30
2023/05/13 08:46:13;;;;;;;11.77;10.65;;;17.10;99.90;;;;;;5023394;28;20626;-30
2023/05/13 08:48:44;;;;;;;10.45;9.25;;;17.10;99.90;;;;;;5024878;28;20201;-30
2023/05/13 08:51:14;;;;;;;13.75;10.88;;;17.10;99.90;;;;;;5023094;28;20347;-30
2023/05/13 08:53:49;;;;;;;11.05;9.93;;;17.10;99.90;;;;;;5040152;28;20275;-30
2023/05/13 08:56:18;;;;;;;11.17;9.97;;;17.20;99.90;;;;;;5025079;28;20323;-30
2023/05/13 08:58:48;;;;;;;12.60;10.97;;;17.20;99.90;;;;;;5026820;28;20216;-30
2023/05/13 09:01:16;;;;;;;11.00;8.90;;;17.30;99.90;;;;;;5044437;28;20277;-30
2023/05/13 09:04:05;;;;;;;14.25;11.15;;;17.30;99.90;;;;;;5044419;28;20208;-30
2023/05/13 09:06:34;;;;;;;11.95;10.25;;;17.40;99.90;;;;;;5044865;28;20208;-30
2023/05/13 09:09:05;;;;;;;12.43;10.48;;;17.50;99.90;;;;;;5043880;28;20451;-30
2023/05/13 09:11:34;;;;;;;10.77;9.68;;;17.50;99.90;;;;;;5029849;28;20282;-30
2023/05/13 09:14:04;;;;;;;12.73;11.27;;;17.50;99.90;;;;;;5023365;28;20557;-31
2023/05/13 09:16:35;;;;;;;11.53;9.73;;;17.60;99.90;;;;;;5024484;28;20278;-31
2023/05/13 09:19:04;;;;;;;12.05;10.30;;;17.60;99.90;;;;;;5024458;28;20197;-31
2023/05/13 09:21:34;;;;;;;11.43;10.23;;;17.70;99.90;;;;;;5022862;28;20240;-31
2023/05/13 09:24:11;;;;;;;12.47;11.17;;;17.70;99.90;;;;;;5024696;28;20197;-32
2023/05/13 09:26:40;;;;;;;12.07;10.85;;;17.80;99.90;;;;;;5024407;28;20208;-32
2023/05/13 09:29:15;;;;;;;12.70;11.38;;;17.80;99.90;;;;;;5025172;28;20279;-32
2023/05/13 09:31:47;;;;;;;11.20;9.98;;;17.90;99.90;;;;;;5039023;28;20593;-31
2023/05/13 09:34:30;;;;;;;11.02;10.02;;;17.90;99.90;;;;;;5024298;28;20232;-31
2023/05/13 09:37:02;;;;;;;12.17;9.97;;;18.00;99.90;;;;;;5042526;28;20346;-32
2023/05/13 09:39:40;;;;;;;9.77;8.43;;;18.10;99.90;;;;;;5026348;28;20205;-31
2023/05/13 09:42:18;;;;;;;10.30;9.15;;;18.20;99.90;;;;;;5027701;28;20204;-32
2023/05/13 09:44:48;;;;;;;10.85;9.50;;;18.20;99.90;;;;;;5027083;28;20511;-32
2023/05/13 09:47:18;;;;;;;11.82;10.52;;;18.30;99.90;;;;;;5026878;28;20288;-31
2023/05/13 09:49:58;;;;;;;12.77;11.02;;;18.30;99.90;;;;;;5027798;28;20201;-32
2023/05/13 09:52:30;;;;;;;13.57;11.82;;;18.40;99.90;;;;;;5025828;28;20201;-31
2023/05/13 09:55:00;;;;;;;15.25;12.07;;;18.40;99.90;;;;;;5027579;28;20200;-31
2023/05/13 09:57:30;;;;;;;15.32;11.70;;;18.40;99.90;;;;;;5042433;28;20279;-32
2023/05/13 10:00:04;;;;;;;14.10;10.27;;;18.50;99.90;;;;;;5027014;28;20229;-32
2023/05/13 10:02:33;;;;;;;11.10;9.25;;;18.60;99.90;;;;;;5045362;28;20254;-32
2023/05/13 10:05:06;;;;;;;11.75;10.55;;;18.60;99.90;;;;;;5046461;28;20216;-32
2023/05/13 10:07:36;;;;;;;12.52;11.20;;;18.70;99.90;;;;;;5046806;28;20283;-32
2023/05/13 10:10:09;;;;;;;12.35;9.18;;;18.70;99.90;;;;;;5047710;28;20221;-32
2023/05/13 10:12:41;;;;;;;10.45;9.45;;;18.80;99.90;;;;;;5047229;28;20196;-32
2023/05/13 10:15:11;;;;;;;10.10;8.63;;;18.80;99.90;;;;;;5046881;28;20208;-32
2023/05/13 10:17:43;;;;;;;14.40;11.48;;;18.90;99.90;;;;;;5045780;28;20650;-31
2023/05/13 10:20:13;;;;;;;10.15;8.93;;;18.90;99.90;;;;;;5046298;28;20220;-32
2023/05/13 10:22:41;;;;;;;9.75;7.53;;;19.00;99.90;;;;;;5047296;28;20231;-32
2023/05/13 10:25:19;;;;;;;8.55;6.93;;;19.00;99.90;;;;;;5028894;28;20204;-32
2023/05/13 10:27:47;;;;;;;12.40;7.15;;;19.10;99.90;;;;;;5045438;28;20286;-31
2023/05/13 10:30:16;;;;;;;8.38;6.78;;;19.10;99.90;;;;;;5046420;28;20228;-31
2023/05/13 10:32:44;;;;;;;8.38;7.57;;;19.10;99.90;;;;;;5044748;28;20630;-32
2023/05/13 10:35:17;;;;;;;10.88;7.32;;;19.10;99.90;;;;;;5028498;28;20219;-32
2023/05/13 10:38:14;;;;;;;10.48;7.97;;;19.10;99.90;;;;;;5046614;28;20228;-32
2023/05/13 10:40:53;;;;;;;7.40;6.57;;;19.20;99.90;;;;;;5045374;28;20212;-32
2023/05/13 10:43:30;;;;;;;11.20;6.50;;;19.10;99.90;;;;;;5045057;28;20768;-32
2023/05/13 10:45:59;;;;;;;11.73;6.90;;;19.20;99.90;;;;;;5046796;28;20203;-32
2023/05/13 10:48:39;;;;;;;7.00;6.30;;;19.20;99.90;;;;;;5044040;28;20310;-32
2023/05/13 10:51:07;;;;;;;7.53;6.65;;;19.30;99.90;;;;;;5046368;28;20259;-32
2023/05/13 10:53:44;;;;;;;9.55;7.55;;;19.40;99.90;;;;;;5044621;28;20212;-32
2023/05/13 10:56:13;;;;;;;8.30;6.50;;;19.40;99.90;;;;;;5044946;28;20285;-32
2023/05/13 10:58:41;;;;;;;6.95;6.00;;;19.40;99.90;;;;;;5046617;28;20281;-32
2023/05/13 11:01:17;;;;;;;7.55;6.35;;;19.50;99.90;;;;;;5035556;28;20201;-32
2023/05/13 11:03:54;;;;;;;6.70;6.10;;;19.50;99.90;;;;;;5025135;28;20464;-33
2023/05/13 11:06:23;;;;;;;6.38;5.78;;;19.60;99.90;;;;;;5026338;28;20220;-32
2023/05/13 11:08:51;;;;;;;6.68;5.82;;;19.60;99.90;;;;;;5008221;28;20208;-32
2023/05/13 11:11:22;;;;;;;5.80;5.30;;;19.60;99.90;;;;;;5026264;28;20597;-32
2023/05/13 11:14:10;;;;;;;6.28;5.65;;;19.70;99.90;;;;;;5041431;28;20249;-32
2023/05/13 11:16:43;;;;;;;6.60;5.60;;;19.70;99.90;;;;;;5028397;28;20308;-32
2023/05/13 11:19:24;;;;;;;6.47;5.63;;;19.80;99.90;;;;;;5026128;28;20201;-32
2023/05/13 11:21:56;;;;;;;8.35;5.80;;;19.80;99.90;;;;;;5024201;28;20320;-32
2023/05/13 11:24:27;;;;;;;5.07;4.57;;;19.90;99.90;;;;;;5024215;28;20626;-32
2023/05/13 11:26:59;;;;;;;6.13;5.10;;;19.90;99.90;;;;;;5026116;28;20308;-32
2023/05/13 11:29:27;;;;;;;7.45;5.10;;;19.90;99.90;;;;;;5024165;28;20339;-33
2023/05/13 11:31:57;;;;;;;6.43;4.40;;;20.00;99.90;;;;;;5025233;28;20235;-32
2023/05/13 11:34:30;;;;;;;7.13;4.72;;;20.00;99.90;;;;;;5045445;28;20298;-32
2023/05/13 11:37:04;;;;;;;4.78;4.28;;;20.10;99.90;;;;;;5043937;28;20624;-31
2023/05/13 11:39:35;;;;;;;4.60;4.20;;;20.10;99.90;;;;;;5045425;28;20210;-31
2023/05/13 11:42:06;;;;;;;7.63;4.68;;;20.20;99.90;;;;;;5045874;28;20200;-31
2023/05/13 11:44:46;;;;;;;6.38;4.22;;;20.20;99.90;;;;;;5029883;28;20310;-31
2023/05/13 11:47:14;;;;;;;4.97;4.18;;;20.20;99.90;;;;;;5024639;28;20555;-31
2023/05/13 11:49:46;;;;;;;7.10;4.40;;;20.20;99.90;;;;;;5025595;28;20295;-31
2023/05/13 11:52:17;;;;;;;5.47;4.07;;;20.20;99.90;;;;;;5023940;28;20266;-31
2023/05/13 11:54:47;;;;;;;4.75;4.35;;;20.30;99.90;;;;;;5026012;28;20204;-31
2023/05/13 11:57:21;;;;;;;6.60;4.43;;;20.40;99.90;;;;;;5024245;28;20236;-31
2023/05/13 11:59:57;;;;;;;8.43;4.60;;;20.40;99.90;;;;;;5025045;28;20286;-31
2023/05/13 12:02:40;;;;;;;7.15;4.40;;;20.40;99.90;;;;;;5031931;28;20200;-31
2023/05/13 12:05:10;;;;;;;6.03;4.63;;;20.50;99.90;;;;;;5045364;28;20710;-31
2023/05/13 12:07:39;;;;;;;5.63;4.13;;;20.50;99.90;;;;;;5045260;28;20262;-31
2023/05/13 12:10:10;;;;;;;5.68;4.35;;;20.50;99.90;;;;;;5045082;28;20586;-31
2023/05/13 12:12:42;;;;;;;4.35;3.95;;;20.60;99.90;;;;;;5043430;28;20374;-32
2023/05/13 12:15:18;;;;;;;5.53;3.65;;;20.70;99.90;;;;;;5043366;28;20200;-32
2023/05/13 12:17:47;;;;;;;6.55;4.45;;;20.70;99.90;;;;;;5019782;28;20683;-32
2023/05/13 12:20:15;;;;;;;5.70;4.10;;;20.80;99.90;;;;;;5024733;28;20231;-32
2023/05/13 12:22:42;;;;;;;5.97;4.60;;;20.90;99.90;;;;;;5023329;28;20295;-32
2023/05/13 12:25:42;;;;;;;7.72;4.75;;;20.90;99.90;;;;;;5023183;28;20220;-32
2023/05/13 12:28:15;;;;;;;6.28;4.43;;;21.00;99.90;;;;;;5023126;28;20200;-32
2023/05/13 12:30:55;;;;;;;4.95;3.88;;;21.00;99.90;;;;;;5024258;28;20216;-32
2023/05/13 12:33:30;;;;;;;6.40;4.90;;;21.10;99.90;;;;;;5024619;28;20208;-32
2023/05/13 12:36:27;;;;;;;6.70;4.38;;;21.10;99.90;;;;;;5052916;28;20295;-32
2023/05/13 12:38:57;;;;;;;5.00;4.47;;;21.20;99.90;;;;;;5024770;28;20212;-32
2023/05/13 12:41:37;;;;;;;5.47;3.78;;;21.20;99.90;;;;;;5025960;28;20704;-32
2023/05/13 12:44:09;;;;;;;5.22;4.20;;;21.10;99.90;;;;;;5022276;28;20744;-32
2023/05/13 12:46:39;;;;;;;6.88;3.92;;;21.10;99.90;;;;;;5026161;28;20227;-32
2023/05/13 12:49:13;;;;;;;5.85;3.80;;;21.10;99.90;;;;;;5023528;28;20227;-32
2023/05/13 12:51:40;;;;;;;4.63;3.70;;;21.10;99.90;;;;;;5030571;28;20280;-32